sensor_id;sensor_type;location;lat;lon;timestamp;temperature;humidity
16273;DHT22;8244;50.044;9.006;2023-02-01T00:02:09;5.20;99.90
16273;DHT22;8244;50.044;9.006;2023-02-01T00:07:10;5.20;99.90
16273;DHT22;8244;50.044;9.006;2023-02-01T00:12:13;5.20;99.90
16273;DHT22;8244;50.044;9.006;2023-02-01T00:17:15;5.20;99.90
16273;DHT22;8244;50.044;9.006;2023-02-01T00:22:16;5.20;99.90
16273;DHT22;8244;50.044;9.006;2023-02-01T00:27:19;5.20;99.90
16273;DHT22;8244;50.044;9.006;2023-02-01T00:32:21;5.30;99.90
16273;DHT22;8244;50.044;9.006;2023-02-01T00:37:23;5.30;99.90
16273;DHT22;8244;50.044;9.006;2023-02-01T00:42:26;5.30;99.90
16273;DHT22;8244;50.044;9.006;2023-02-01T00:47:27;5.30;99.90
16273;DHT22;8244;50.044;9.006;2023-02-01T00:52:30;5.30;99.90
16273;DHT22;8244;50.044;9.006;2023-02-01T00:57:33;5.30;99.90
16273;DHT22;8244;50.044;9.006;2023-02-01T01:02:35;5.30;99.90
16273;DHT22;8244;50.044;9.006;2023-02-01T01:07:36;5.40;99.90
16273;DHT22;8244;50.044;9.006;2023-02-01T01:12:39;5.40;99.90
16273;DHT22;8244;50.044;9.006;2023-02-01T01:17:41;5.40;99.90
16273;DHT22;8244;50.044;9.006;2023-02-01T01:22:43;5.40;99.90
16273;DHT22;8244;50.044;9.006;2023-02-01T01:27:48;5.40;99.90
16273;DHT22;8244;50.044;9.006;2023-02-01T01:32:51;5.40;99.90
16273;DHT22;8244;50.044;9.006;2023-02-01T01:37:53;5.40;99.90
16273;DHT22;8244;50.044;9.006;2023-02-01T01:42:57;5.40;99.90
16273;DHT22;8244;50.044;9.006;2023-02-01T01:48:00;5.40;99.90
16273;DHT22;8244;50.044;9.006;2023-02-01T01:53:05;5.40;99.90
16273;DHT22;8244;50.044;9.006;2023-02-01T01:58:11;5.40;99.90
16273;DHT22;8244;50.044;9.006;2023-02-01T02:03:16;5.40;99.90
16273;DHT22;8244;50.044;9.006;2023-02-01T02:08:19;5.40;99.90
16273;DHT22;8244;50.044;9.006;2023-02-01T02:13:23;5.40;99.90
16273;DHT22;8244;50.044;9.006;2023-02-01T02:18:29;5.40;99.90
16273;DHT22;8244;50.044;9.006;2023-02-01T02:29:52;5.40;99.90
16273;DHT22;8244;50.044;9.006;2023-02-01T02:35:02;5.40;99.90
16273;DHT22;8244;50.044;9.006;2023-02-01T02:40:15;5.40;99.90
16273;DHT22;8244;50.044;9.006;2023-02-01T02:45:25;5.50;99.90
16273;DHT22;8244;50.044;9.006;2023-02-01T02:50:53;5.40;99.90
16273;DHT22;8244;50.044;9.006;2023-02-01T02:56:14;5.50;99.90
16273;DHT22;8244;50.044;9.006;2023-02-01T03:01:34;5.50;99.90
16273;DHT22;8244;50.044;9.006;2023-02-01T03:06:55;5.50;99.90
16273;DHT22;8244;50.044;9.006;2023-02-01T03:12:01;5.50;99.90
16273;DHT22;8244;50.044;9.006;2023-02-01T03:17:24;5.40;99.90
16273;DHT22;8244;50.044;9.006;2023-02-01T03:22:28;5.50;99.90
16273;DHT22;8244;50.044;9.006;2023-02-01T03:27:34;5.50;99.90
16273;DHT22;8244;50.044;9.006;2023-02-01T03:32:40;5.40;99.90
16273;DHT22;8244;50.044;9.006;2023-02-01T03:38:16;5.40;99.90
16273;DHT22;8244;50.044;9.006;2023-02-01T03:43:22;5.50;99.90
16273;DHT22;8244;50.044;9.006;2023-02-01T03:48:26;5.40;99.90
16273;DHT22;8244;50.044;9.006;2023-02-01T03:53:33;5.40;99.90
16273;DHT22;8244;50.044;9.006;2023-02-01T03:58:36;5.40;99.90
16273;DHT22;8244;50.044;9.006;2023-02-01T04:03:38;5.40;99.90
16273;DHT22;8244;50.044;9.006;2023-02-01T04:08:41;5.40;99.90
16273;DHT22;8244;50.044;9.006;2023-02-01T04:13:43;5.40;99.90
16273;DHT22;8244;50.044;9.006;2023-02-01T04:18:44;5.40;99.90
16273;DHT22;8244;50.044;9.006;2023-02-01T04:23:47;5.40;99.90
16273;DHT22;8244;50.044;9.006;2023-02-01T04:28:49;5.40;99.90
16273;DHT22;8244;50.044;9.006;2023-02-01T04:33:51;5.40;99.90
16273;DHT22;8244;50.044;9.006;2023-02-01T04:38:55;5.40;99.90
16273;DHT22;8244;50.044;9.006;2023-02-01T04:43:56;5.40;99.90
16273;DHT22;8244;50.044;9.006;2023-02-01T04:48:58;5.40;99.90
16273;DHT22;8244;50.044;9.006;2023-02-01T04:54:01;5.40;99.90
16273;DHT22;8244;50.044;9.006;2023-02-01T04:59:03;5.40;99.90
16273;DHT22;8244;50.044;9.006;2023-02-01T05:04:05;5.40;99.90
16273;DHT22;8244;50.044;9.006;2023-02-01T05:09:08;5.40;99.90
16273;DHT22;8244;50.044;9.006;2023-02-01T05:14:10;5.40;99.90
16273;DHT22;8244;50.044;9.006;2023-02-01T05:19:11;5.40;99.90
16273;DHT22;8244;50.044;9.006;2023-02-01T05:24:14;5.40;99.90
16273;DHT22;8244;50.044;9.006;2023-02-01T05:29:21;5.40;99.90
16273;DHT22;8244;50.044;9.006;2023-02-01T05:34:22;5.40;99.90
16273;DHT22;8244;50.044;9.006;2023-02-01T05:39:26;5.40;99.90
16273;DHT22;8244;50.044;9.006;2023-02-01T05:44:27;5.40;99.90
16273;DHT22;8244;50.044;9.006;2023-02-01T05:49:29;5.40;99.90
16273;DHT22;8244;50.044;9.006;2023-02-01T05:54:32;5.50;99.90
16273;DHT22;8244;50.044;9.006;2023-02-01T05:59:33;5.50;99.90
16273;DHT22;8244;50.044;9.006;2023-02-01T06:04:37;5.50;99.90
16273;DHT22;8244;50.044;9.006;2023-02-01T06:09:41;5.50;99.90
16273;DHT22;8244;50.044;9.006;2023-02-01T06:14:42;5.50;99.90
16273;DHT22;8244;50.044;9.006;2023-02-01T06:19:44;5.40;99.90
16273;DHT22;8244;50.044;9.006;2023-02-01T06:24:50;5.40;99.90
16273;DHT22;8244;50.044;9.006;2023-02-01T06:29:51;5.30;99.90
16273;DHT22;8244;50.044;9.006;2023-02-01T06:34:53;5.30;99.90
16273;DHT22;8244;50.044;9.006;2023-02-01T06:39:57;5.20;99.90
16273;DHT22;8244;50.044;9.006;2023-02-01T06:44:59;5.20;99.90
16273;DHT22;8244;50.044;9.006;2023-02-01T06:50:00;5.20;99.90
16273;DHT22;8244;50.044;9.006;2023-02-01T06:55:04;5.20;99.90
16273;DHT22;8244;50.044;9.006;2023-02-01T07:00:07;5.20;99.90
16273;DHT22;8244;50.044;9.006;2023-02-01T07:05:09;5.20;99.90
16273;DHT22;8244;50.044;9.006;2023-02-01T07:10:12;5.20;99.90
16273;DHT22;8244;50.044;9.006;2023-02-01T07:15:14;5.10;99.90
16273;DHT22;8244;50.044;9.006;2023-02-01T07:20:16;5.00;99.90
16273;DHT22;8244;50.044;9.006;2023-02-01T07:25:19;5.00;99.90
16273;DHT22;8244;50.044;9.006;2023-02-01T07:30:21;4.90;99.90
16273;DHT22;8244;50.044;9.006;2023-02-01T07:35:22;5.00;99.90
16273;DHT22;8244;50.044;9.006;2023-02-01T07:40:25;5.00;99.90
16273;DHT22;8244;50.044;9.006;2023-02-01T07:45:28;5.00;99.90
16273;DHT22;8244;50.044;9.006;2023-02-01T07:50:30;5.00;99.90
16273;DHT22;8244;50.044;9.006;2023-02-01T07:55:33;5.00;99.90
16273;DHT22;8244;50.044;9.006;2023-02-01T08:00:37;5.00;99.90
16273;DHT22;8244;50.044;9.006;2023-02-01T08:05:56;5.00;99.90
16273;DHT22;8244;50.044;9.006;2023-02-01T08:11:00;5.10;99.90
16273;DHT22;8244;50.044;9.006;2023-02-01T08:16:04;5.20;99.90
16273;DHT22;8244;50.044;9.006;2023-02-01T08:21:07;5.30;99.90
16273;DHT22;8244;50.044;9.006;2023-02-01T08:26:13;5.40;99.90
16273;DHT22;8244;50.044;9.006;2023-02-01T08:31:18;5.40;99.90
16273;DHT22;8244;50.044;9.006;2023-02-01T08:36:21;5.40;99.90
16273;DHT22;8244;50.044;9.006;2023-02-01T08:41:25;5.50;99.90
16273;DHT22;8244;50.044;9.006;2023-02-01T08:46:27;5.50;99.90
16273;DHT22;8244;50.044;9.006;2023-02-01T08:51:29;5.60;99.90
16273;DHT22;8244;50.044;9.006;2023-02-01T08:56:32;5.70;99.90
16273;DHT22;8244;50.044;9.006;2023-02-01T09:01:34;5.80;99.90
16273;DHT22;8244;50.044;9.006;2023-02-01T09:06:35;5.80;99.90
16273;DHT22;8244;50.044;9.006;2023-02-01T09:11:38;5.80;99.90
16273;DHT22;8244;50.044;9.006;2023-02-01T09:16:40;5.90;99.90
16273;DHT22;8244;50.044;9.006;2023-02-01T09:21:41;5.90;99.90
16273;DHT22;8244;50.044;9.006;2023-02-01T09:26:44;6.00;99.90
16273;DHT22;8244;50.044;9.006;2023-02-01T09:31:46;6.10;99.90
16273;DHT22;8244;50.044;9.006;2023-02-01T09:36:48;6.10;99.90
16273;DHT22;8244;50.044;9.006;2023-02-01T09:41:58;6.20;99.90
16273;DHT22;8244;50.044;9.006;2023-02-01T09:47:01;6.20;99.90
16273;DHT22;8244;50.044;9.006;2023-02-01T09:52:07;6.20;99.90
16273;DHT22;8244;50.044;9.006;2023-02-01T09:57:14;6.30;99.90
16273;DHT22;8244;50.044;9.006;2023-02-01T10:02:20;6.30;99.90
16273;DHT22;8244;50.044;9.006;2023-02-01T10:07:28;6.30;99.90
16273;DHT22;8244;50.044;9.006;2023-02-01T10:13:03;6.40;99.90
16273;DHT22;8244;50.044;9.006;2023-02-01T10:23:55;6.50;99.90
16273;DHT22;8244;50.044;9.006;2023-02-01T10:29:04;6.50;99.90
16273;DHT22;8244;50.044;9.006;2023-02-01T10:34:14;6.60;99.90
16273;DHT22;8244;50.044;9.006;2023-02-01T10:39:19;6.60;99.90
16273;DHT22;8244;50.044;9.006;2023-02-01T10:44:25;6.60;99.90
16273;DHT22;8244;50.044;9.006;2023-02-01T10:49:33;6.70;99.90
16273;DHT22;8244;50.044;9.006;2023-02-01T10:54:38;6.70;99.90
16273;DHT22;8244;50.044;9.006;2023-02-01T10:59:41;6.70;99.90
16273;DHT22;8244;50.044;9.006;2023-02-01T11:04:43;6.60;99.90
16273;DHT22;8244;50.044;9.006;2023-02-01T11:09:50;6.60;99.90
16273;DHT22;8244;50.044;9.006;2023-02-01T11:15:01;6.60;99.90
16273;DHT22;8244;50.044;9.006;2023-02-01T11:20:05;6.60;99.90
16273;DHT22;8244;50.044;9.006;2023-02-01T11:25:09;6.60;99.90
16273;DHT22;8244;50.044;9.006;2023-02-01T11:30:18;6.70;99.90
16273;DHT22;8244;50.044;9.006;2023-02-01T11:35:21;6.70;99.90
16273;DHT22;8244;50.044;9.006;2023-02-01T11:40:27;6.70;99.90
16273;DHT22;8244;50.044;9.006;2023-02-01T11:45:31;6.70;99.90
16273;DHT22;8244;50.044;9.006;2023-02-01T11:50:38;6.70;99.90
16273;DHT22;8244;50.044;9.006;2023-02-01T11:55:56;6.70;99.90
16273;DHT22;8244;50.044;9.006;2023-02-01T12:01:13;6.80;99.90
16273;DHT22;8244;50.044;9.006;2023-02-01T12:06:28;6.80;99.90
16273;DHT22;8244;50.044;9.006;2023-02-01T12:11:44;6.80;99.90
16273;DHT22;8244;50.044;9.006;2023-02-01T12:17:11;6.90;99.90
16273;DHT22;8244;50.044;9.006;2023-02-01T12:22:30;6.90;99.90
16273;DHT22;8244;50.044;9.006;2023-02-01T12:33:21;6.90;99.90
16273;DHT22;8244;50.044;9.006;2023-02-01T12:38:52;6.90;99.90
16273;DHT22;8244;50.044;9.006;2023-02-01T12:43:57;6.90;99.90
16273;DHT22;8244;50.044;9.006;2023-02-01T12:49:04;6.90;99.90
16273;DHT22;8244;50.044;9.006;2023-02-01T12:54:11;6.90;99.90
16273;DHT22;8244;50.044;9.006;2023-02-01T12:59:19;6.90;99.90
16273;DHT22;8244;50.044;9.006;2023-02-01T13:04:27;6.90;99.90
16273;DHT22;8244;50.044;9.006;2023-02-01T13:09:36;6.90;99.90
16273;DHT22;8244;50.044;9.006;2023-02-01T13:14:43;6.90;99.90
16273;DHT22;8244;50.044;9.006;2023-02-01T13:19:52;6.90;99.90
16273;DHT22;8244;50.044;9.006;2023-02-01T13:24:57;6.90;99.90
16273;DHT22;8244;50.044;9.006;2023-02-01T13:30:03;6.90;99.90
16273;DHT22;8244;50.044;9.006;2023-02-01T13:35:28;7.00;99.90
16273;DHT22;8244;50.044;9.006;2023-02-01T13:40:39;7.00;99.90
16273;DHT22;8244;50.044;9.006;2023-02-01T13:45:47;7.00;99.90
16273;DHT22;8244;50.044;9.006;2023-02-01T13:50:53;7.10;99.90
16273;DHT22;8244;50.044;9.006;2023-02-01T13:56:00;7.10;99.90
16273;DHT22;8244;50.044;9.006;2023-02-01T14:06:44;7.10;99.90
16273;DHT22;8244;50.044;9.006;2023-02-01T14:11:49;7.10;99.90
16273;DHT22;8244;50.044;9.006;2023-02-01T14:22:42;7.20;99.90
16273;DHT22;8244;50.044;9.006;2023-02-01T14:27:44;7.20;99.90
16273;DHT22;8244;50.044;9.006;2023-02-01T14:32:46;7.20;99.90
16273;DHT22;8244;50.044;9.006;2023-02-01T14:37:53;7.20;99.90
16273;DHT22;8244;50.044;9.006;2023-02-01T14:42:55;7.20;99.90
16273;DHT22;8244;50.044;9.006;2023-02-01T14:53:34;7.20;99.90
16273;DHT22;8244;50.044;9.006;2023-02-01T14:58:40;7.30;99.90
16273;DHT22;8244;50.044;9.006;2023-02-01T15:03:51;7.30;99.90
16273;DHT22;8244;50.044;9.006;2023-02-01T15:08:59;7.30;99.90
16273;DHT22;8244;50.044;9.006;2023-02-01T15:14:01;7.40;99.90
16273;DHT22;8244;50.044;9.006;2023-02-01T15:19:11;7.50;99.90
16273;DHT22;8244;50.044;9.006;2023-02-01T15:24:20;7.50;99.90
16273;DHT22;8244;50.044;9.006;2023-02-01T15:29:23;7.50;99.90
16273;DHT22;8244;50.044;9.006;2023-02-01T15:34:46;7.50;99.90
16273;DHT22;8244;50.044;9.006;2023-02-01T15:40:18;7.60;99.90
16273;DHT22;8244;50.044;9.006;2023-02-01T15:45:25;7.60;99.90
16273;DHT22;8244;50.044;9.006;2023-02-01T15:50:30;7.60;99.90
16273;DHT22;8244;50.044;9.006;2023-02-01T15:55:36;7.60;99.90
16273;DHT22;8244;50.044;9.006;2023-02-01T16:00:43;7.60;99.90
16273;DHT22;8244;50.044;9.006;2023-02-01T16:05:45;7.60;99.90
16273;DHT22;8244;50.044;9.006;2023-02-01T16:10:50;7.50;99.90
16273;DHT22;8244;50.044;9.006;2023-02-01T16:15:52;7.50;99.90
16273;DHT22;8244;50.044;9.006;2023-02-01T16:20:53;7.40;99.90
16273;DHT22;8244;50.044;9.006;2023-02-01T16:25:56;7.40;99.90
16273;DHT22;8244;50.044;9.006;2023-02-01T16:30:58;7.40;99.90
16273;DHT22;8244;50.044;9.006;2023-02-01T16:36:00;7.40;99.90
16273;DHT22;8244;50.044;9.006;2023-02-01T16:41:04;7.40;99.90
16273;DHT22;8244;50.044;9.006;2023-02-01T16:46:13;7.30;99.90
16273;DHT22;8244;50.044;9.006;2023-02-01T16:51:16;7.40;99.90
16273;DHT22;8244;50.044;9.006;2023-02-01T16:56:20;7.40;99.90
16273;DHT22;8244;50.044;9.006;2023-02-01T17:01:23;7.40;99.90
16273;DHT22;8244;50.044;9.006;2023-02-01T17:06:25;7.40;99.90
16273;DHT22;8244;50.044;9.006;2023-02-01T17:11:31;7.40;99.90
16273;DHT22;8244;50.044;9.006;2023-02-01T17:16:33;7.40;99.90
16273;DHT22;8244;50.044;9.006;2023-02-01T17:21:41;7.40;99.90
16273;DHT22;8244;50.044;9.006;2023-02-01T17:26:45;7.40;99.90
16273;DHT22;8244;50.044;9.006;2023-02-01T17:31:48;7.40;99.90
16273;DHT22;8244;50.044;9.006;2023-02-01T17:36:51;7.40;99.90
16273;DHT22;8244;50.044;9.006;2023-02-01T17:41:54;7.40;99.90
16273;DHT22;8244;50.044;9.006;2023-02-01T17:46:55;7.40;99.90
16273;DHT22;8244;50.044;9.006;2023-02-01T17:51:58;7.30;99.90
16273;DHT22;8244;50.044;9.006;2023-02-01T17:57:01;7.30;99.90
16273;DHT22;8244;50.044;9.006;2023-02-01T18:02:08;7.30;99.90
16273;DHT22;8244;50.044;9.006;2023-02-01T18:07:10;7.20;99.90
16273;DHT22;8244;50.044;9.006;2023-02-01T18:12:17;7.20;99.90
16273;DHT22;8244;50.044;9.006;2023-02-01T18:17:19;7.10;99.90
16273;DHT22;8244;50.044;9.006;2023-02-01T18:22:23;7.10;99.90
16273;DHT22;8244;50.044;9.006;2023-02-01T18:27:26;7.00;99.90
16273;DHT22;8244;50.044;9.006;2023-02-01T18:32:29;6.90;99.90
16273;DHT22;8244;50.044;9.006;2023-02-01T18:37:30;6.80;99.90
16273;DHT22;8244;50.044;9.006;2023-02-01T18:42:33;6.80;99.90
16273;DHT22;8244;50.044;9.006;2023-02-01T18:47:35;6.70;99.90
16273;DHT22;8244;50.044;9.006;2023-02-01T18:52:36;6.60;99.90
16273;DHT22;8244;50.044;9.006;2023-02-01T18:57:39;6.60;99.90
16273;DHT22;8244;50.044;9.006;2023-02-01T19:02:41;6.50;99.90
16273;DHT22;8244;50.044;9.006;2023-02-01T19:07:43;6.50;99.90
16273;DHT22;8244;50.044;9.006;2023-02-01T19:12:50;6.40;99.90
16273;DHT22;8244;50.044;9.006;2023-02-01T19:17:53;6.30;99.90
16273;DHT22;8244;50.044;9.006;2023-02-01T19:22:55;6.30;99.90
16273;DHT22;8244;50.044;9.006;2023-02-01T19:27:58;6.30;99.90
16273;DHT22;8244;50.044;9.006;2023-02-01T19:33:00;6.30;99.90
16273;DHT22;8244;50.044;9.006;2023-02-01T19:38:03;6.20;99.90
16273;DHT22;8244;50.044;9.006;2023-02-01T19:43:06;6.20;99.90
16273;DHT22;8244;50.044;9.006;2023-02-01T19:48:08;6.20;99.90
16273;DHT22;8244;50.044;9.006;2023-02-01T19:53:13;6.20;99.90
16273;DHT22;8244;50.044;9.006;2023-02-01T19:58:16;6.20;99.90
16273;DHT22;8244;50.044;9.006;2023-02-01T20:03:17;6.10;99.90
16273;DHT22;8244;50.044;9.006;2023-02-01T20:08:19;6.10;99.90
16273;DHT22;8244;50.044;9.006;2023-02-01T20:13:22;6.10;99.90
16273;DHT22;8244;50.044;9.006;2023-02-01T20:18:24;6.10;99.90
16273;DHT22;8244;50.044;9.006;2023-02-01T20:23:27;6.10;99.90
16273;DHT22;8244;50.044;9.006;2023-02-01T20:28:30;6.10;99.90
16273;DHT22;8244;50.044;9.006;2023-02-01T20:33:33;6.10;99.90
16273;DHT22;8244;50.044;9.006;2023-02-01T20:38:34;6.10;99.90
16273;DHT22;8244;50.044;9.006;2023-02-01T20:43:37;6.00;99.90
16273;DHT22;8244;50.044;9.006;2023-02-01T20:48:41;6.10;99.90
16273;DHT22;8244;50.044;9.006;2023-02-01T20:53:44;6.10;99.90
16273;DHT22;8244;50.044;9.006;2023-02-01T20:58:48;6.10;99.90
16273;DHT22;8244;50.044;9.006;2023-02-01T21:03:50;6.10;99.90
16273;DHT22;8244;50.044;9.006;2023-02-01T21:08:51;6.20;99.90
16273;DHT22;8244;50.044;9.006;2023-02-01T21:13:54;6.20;99.90
16273;DHT22;8244;50.044;9.006;2023-02-01T21:18:57;6.20;99.90
16273;DHT22;8244;50.044;9.006;2023-02-01T21:23:59;6.20;99.90
16273;DHT22;8244;50.044;9.006;2023-02-01T21:29:02;6.20;99.90
16273;DHT22;8244;50.044;9.006;2023-02-01T21:34:03;6.30;99.90
16273;DHT22;8244;50.044;9.006;2023-02-01T21:39:07;6.30;99.90
16273;DHT22;8244;50.044;9.006;2023-02-01T21:44:12;6.30;99.90
16273;DHT22;8244;50.044;9.006;2023-02-01T21:49:14;6.30;99.90
16273;DHT22;8244;50.044;9.006;2023-02-01T21:54:16;6.30;99.90
16273;DHT22;8244;50.044;9.006;2023-02-01T21:59:19;6.40;99.90
16273;DHT22;8244;50.044;9.006;2023-02-01T22:04:20;6.40;99.90
16273;DHT22;8244;50.044;9.006;2023-02-01T22:09:24;6.40;99.90
16273;DHT22;8244;50.044;9.006;2023-02-01T22:14:27;6.40;99.90
16273;DHT22;8244;50.044;9.006;2023-02-01T22:19:29;6.50;99.90
16273;DHT22;8244;50.044;9.006;2023-02-01T22:24:30;6.50;99.90
16273;DHT22;8244;50.044;9.006;2023-02-01T22:29:35;6.40;99.90
16273;DHT22;8244;50.044;9.006;2023-02-01T22:34:36;6.50;99.90
16273;DHT22;8244;50.044;9.006;2023-02-01T22:39:38;6.50;99.90
16273;DHT22;8244;50.044;9.006;2023-02-01T22:44:41;6.60;99.90
16273;DHT22;8244;50.044;9.006;2023-02-01T22:49:44;6.60;99.90
16273;DHT22;8244;50.044;9.006;2023-02-01T22:54:46;6.60;99.90
16273;DHT22;8244;50.044;9.006;2023-02-01T22:59:49;6.60;99.90
16273;DHT22;8244;50.044;9.006;2023-02-01T23:04:50;6.60;99.90
16273;DHT22;8244;50.044;9.006;2023-02-01T23:09:52;6.60;99.90
16273;DHT22;8244;50.044;9.006;2023-02-01T23:14:55;6.60;99.90
16273;DHT22;8244;50.044;9.006;2023-02-01T23:20:09;6.60;99.90
16273;DHT22;8244;50.044;9.006;2023-02-01T23:25:15;6.50;99.90
16273;DHT22;8244;50.044;9.006;2023-02-01T23:30:19;6.50;99.90
16273;DHT22;8244;50.044;9.006;2023-02-01T23:35:20;6.50;99.90
16273;DHT22;8244;50.044;9.006;2023-02-01T23:40:22;6.50;99.90
16273;DHT22;8244;50.044;9.006;2023-02-01T23:45:26;6.60;99.90
16273;DHT22;8244;50.044;9.006;2023-02-01T23:50:28;6.60;99.90
16273;DHT22;8244;50.044;9.006;2023-02-01T23:55:29;6.60;99.90
